Time;durP1;ratioP1;P1;durP2;ratioP2;P2;SDS_P1;SDS_P2;PMS_P1;PMS_P2;Temp;Humidity;BMP_temperature;BMP_pressure;BME280_temperature;BME280_humidity;BME280_pressure;Samples;Min_cycle;Max_cycle;Signal;HPM_P1;HPM_P2
2021/06/14 00:01:57;;;;;;;6.55;4.20;;;13.90;93.80;;;;;;4955518;28;20442;-72
2021/06/14 00:04:23;;;;;;;11.00;5.07;;;13.90;93.90;;;;;;4954970;28;20031;-71
2021/06/14 00:06:48;;;;;;;7.60;5.13;;;13.90;94.00;;;;;;4972940;28;20096;-72
2021/06/14 00:09:21;;;;;;;11.63;5.32;;;13.80;94.00;;;;;;4973065;28;20030;-72
2021/06/14 00:11:47;;;;;;;10.85;4.95;;;13.80;94.00;;;;;;4955146;28;20038;-75
2021/06/14 00:14:13;;;;;;;15.90;5.75;;;13.80;94.10;;;;;;4972938;28;20476;-71
2021/06/14 00:16:39;;;;;;;7.65;5.88;;;13.80;94.20;;;;;;4972932;28;20047;-74
2021/06/14 00:19:06;;;;;;;10.45;5.95;;;13.80;94.30;;;;;;4971806;28;20046;-74
2021/06/14 00:21:32;;;;;;;7.78;4.57;;;13.70;94.30;;;;;;4955515;28;20480;-77
2021/06/14 00:23:58;;;;;;;6.93;5.07;;;13.70;94.40;;;;;;4972006;28;20026;-72
2021/06/14 00:26:23;;;;;;;8.75;5.30;;;13.60;94.50;;;;;;4972783;28;20113;-74
2021/06/14 00:28:49;;;;;;;8.20;5.35;;;13.60;94.60;;;;;;4973171;28;20030;-78
2021/06/14 00:31:14;;;;;;;7.93;4.68;;;13.60;94.60;;;;;;4954926;28;20027;-73
2021/06/14 00:33:40;;;;;;;8.43;5.88;;;13.60;94.70;;;;;;4972760;28;20038;-73
2021/06/14 00:36:07;;;;;;;6.22;4.82;;;13.50;94.70;;;;;;4972552;28;20468;-75
2021/06/14 00:38:33;;;;;;;6.82;4.40;;;13.50;94.70;;;;;;4972126;28;20057;-72
2021/06/14 00:40:59;;;;;;;6.93;4.78;;;13.50;94.80;;;;;;4972561;28;20034;-80
2021/06/14 00:43:25;;;;;;;7.28;5.13;;;13.50;94.90;;;;;;4972944;28;20023;-78
2021/06/14 00:45:52;;;;;;;6.70;5.15;;;13.40;95.00;;;;;;4954560;28;20543;-76
2021/06/14 00:48:19;;;;;;;7.57;4.90;;;13.40;95.10;;;;;;4974125;28;20035;-83
2021/06/14 00:50:53;;;;;;;7.45;4.63;;;13.40;95.20;;;;;;4976051;28;20496;-74
2021/06/14 00:53:31;;;;;;;9.30;5.00;;;13.30;95.30;;;;;;4975919;28;20529;-80
2021/06/14 00:55:59;;;;;;;8.15;5.68;;;13.30;95.40;;;;;;4975819;28;20487;-79
2021/06/14 00:58:25;;;;;;;9.20;5.75;;;13.30;95.50;;;;;;4976190;28;20074;-79
2021/06/14 01:00:51;;;;;;;9.40;5.03;;;13.20;95.50;;;;;;4957956;28;20050;-71
2021/06/14 01:03:17;;;;;;;5.93;4.57;;;13.20;95.70;;;;;;4976058;28;20105;-72
2021/06/14 01:05:46;;;;;;;8.18;5.28;;;13.20;95.70;;;;;;4958542;28;20022;-79
2021/06/14 01:08:12;;;;;;;7.88;5.45;;;13.20;95.80;;;;;;4975461;28;20117;-77
2021/06/14 01:10:40;;;;;;;7.90;5.28;;;13.20;95.80;;;;;;4975923;28;20440;-73
2021/06/14 01:13:24;;;;;;;9.68;6.15;;;13.20;95.90;;;;;;4974944;28;20026;-81
2021/06/14 01:16:19;;;;;;;8.98;5.50;;;13.10;95.90;;;;;;4975343;28;20027;-78
2021/06/14 01:18:48;;;;;;;9.77;5.03;;;13.20;95.90;;;;;;4975354;28;20139;-72
2021/06/14 01:21:22;;;;;;;7.80;5.82;;;13.10;95.90;;;;;;4975138;28;20043;-79
2021/06/14 01:23:47;;;;;;;6.40;5.40;;;13.10;96.00;;;;;;4958164;28;20476;-81
2021/06/14 01:26:15;;;;;;;12.55;6.82;;;13.00;95.90;;;;;;4958268;28;20178;-72
2021/06/14 01:28:43;;;;;;;11.23;6.43;;;13.00;96.00;;;;;;4957661;28;20046;-83
2021/06/14 01:31:10;;;;;;;8.25;4.97;;;13.00;96.10;;;;;;4958442;28;20054;-85
2021/06/14 01:33:37;;;;;;;10.40;6.15;;;13.00;96.10;;;;;;4958043;28;20028;-83
2021/06/14 01:36:10;;;;;;;10.73;5.57;;;13.00;96.10;;;;;;4956877;28;20507;-72
2021/06/14 01:38:39;;;;;;;7.13;5.68;;;12.90;96.10;;;;;;4958295;28;20448;-75
2021/06/14 01:41:08;;;;;;;8.15;5.18;;;12.90;96.20;;;;;;4975108;28;20022;-81
2021/06/14 01:43:36;;;;;;;8.57;5.13;;;12.80;96.30;;;;;;4974764;28;20037;-75
2021/06/14 01:46:07;;;;;;;15.05;6.63;;;12.80;96.30;;;;;;4957498;28;20046;-79
2021/06/14 01:48:36;;;;;;;12.00;6.07;;;12.80;96.30;;;;;;4974912;28;20035;-76
2021/06/14 01:51:02;;;;;;;7.25;5.20;;;12.80;96.30;;;;;;4975038;28;20098;-72
2021/06/14 01:53:28;;;;;;;10.82;6.07;;;12.80;96.30;;;;;;4975160;28;20034;-75
2021/06/14 01:55:55;;;;;;;8.07;5.72;;;12.80;96.40;;;;;;4973968;28;20101;-71
2021/06/14 01:58:22;;;;;;;10.90;6.13;;;12.70;96.40;;;;;;4957705;28;20039;-74
2021/06/14 02:00:48;;;;;;;9.55;6.10;;;12.70;96.50;;;;;;4975112;28;20074;-73
2021/06/14 02:03:16;;;;;;;7.55;5.40;;;12.70;96.60;;;;;;4974335;28;20046;-75
2021/06/14 02:05:43;;;;;;;8.00;5.43;;;12.60;96.60;;;;;;4974954;28;20023;-74
2021/06/14 02:08:12;;;;;;;8.25;5.60;;;12.60;96.60;;;;;;4974952;28;20033;-74
2021/06/14 02:10:38;;;;;;;9.68;5.90;;;12.60;96.70;;;;;;4956973;28;20391;-77
2021/06/14 02:13:07;;;;;;;6.65;4.90;;;12.60;96.80;;;;;;4957331;28;20219;-78
2021/06/14 02:15:33;;;;;;;7.43;5.35;;;12.60;96.70;;;;;;4973259;28;20166;-76
2021/06/14 02:18:01;;;;;;;8.60;5.95;;;12.60;96.70;;;;;;4955549;28;20070;-72
2021/06/14 02:20:27;;;;;;;8.02;6.32;;;12.50;96.80;;;;;;4943128;28;20022;-81
2021/06/14 02:22:54;;;;;;;9.10;6.15;;;12.50;96.90;;;;;;4964234;28;20609;-83
2021/06/14 02:25:20;;;;;;;8.38;6.20;;;12.50;96.90;;;;;;4962921;28;20022;-83
2021/06/14 02:27:46;;;;;;;9.45;6.07;;;12.50;97.00;;;;;;4959898;28;20046;-73
2021/06/14 02:30:14;;;;;;;10.45;6.13;;;12.50;97.00;;;;;;4965090;28;20031;-83
2021/06/14 02:32:41;;;;;;;8.73;5.93;;;12.40;97.00;;;;;;4942771;28;20023;-71
2021/06/14 02:35:09;;;;;;;10.40;6.38;;;12.40;97.00;;;;;;4946510;28;20034;-84
2021/06/14 02:37:37;;;;;;;9.55;6.75;;;12.40;97.30;;;;;;4958272;28;20035;-80
2021/06/14 02:40:07;;;;;;;9.88;6.63;;;12.40;97.00;;;;;;4958283;28;20023;-84
2021/06/14 02:42:33;;;;;;;10.70;6.22;;;12.40;97.00;;;;;;4927489;29;20028;-71
2021/06/14 02:45:00;;;;;;;8.13;5.35;;;12.40;97.10;;;;;;4944197;29;20023;-72
2021/06/14 02:47:25;;;;;;;11.65;6.10;;;12.40;97.10;;;;;;4967872;28;20057;-73
2021/06/14 02:49:51;;;;;;;10.15;6.38;;;12.30;97.10;;;;;;4973972;28;20054;-72
2021/06/14 02:52:18;;;;;;;10.57;6.45;;;12.30;97.20;;;;;;4973610;28;20030;-75
2021/06/14 02:54:51;;;;;;;7.63;5.85;;;12.30;97.20;;;;;;4956437;28;20034;-80
2021/06/14 02:57:18;;;;;;;10.40;6.10;;;12.30;97.30;;;;;;4973971;28;20037;-79
2021/06/14 02:59:46;;;;;;;10.93;6.80;;;12.30;97.40;;;;;;4959528;28;20027;-72
2021/06/14 03:02:13;;;;;;;9.23;6.50;;;12.30;97.50;;;;;;4937386;29;20028;-80
2021/06/14 03:04:38;;;;;;;9.60;6.88;;;12.20;97.40;;;;;;4950764;29;20022;-72
2021/06/14 03:07:05;;;;;;;7.28;5.78;;;12.20;97.60;;;;;;4934545;29;20400;-84
2021/06/14 03:09:31;;;;;;;10.60;7.10;;;12.20;97.60;;;;;;4962181;28;20361;-77
2021/06/14 03:11:58;;;;;;;9.02;6.50;;;12.20;97.60;;;;;;4968760;28;20109;-73
2021/06/14 03:14:24;;;;;;;12.10;7.35;;;12.20;97.60;;;;;;4953233;28;20018;-72
2021/06/14 03:16:51;;;;;;;9.52;6.82;;;12.20;97.70;;;;;;4956024;28;20403;-72
2021/06/14 03:19:21;;;;;;;8.70;6.85;;;12.20;97.80;;;;;;4956209;28;20487;-80
2021/06/14 03:21:46;;;;;;;9.80;6.68;;;12.20;97.80;;;;;;4954875;28;20490;-77
2021/06/14 03:24:14;;;;;;;11.10;7.03;;;12.20;97.90;;;;;;4973536;28;20095;-72
2021/06/14 03:26:42;;;;;;;10.43;7.60;;;12.10;97.90;;;;;;4973663;28;20023;-75
2021/06/14 03:29:10;;;;;;;10.93;7.43;;;12.20;97.90;;;;;;4955877;28;20129;-76
2021/06/14 03:31:37;;;;;;;13.55;7.78;;;12.20;97.90;;;;;;4973562;28;20022;-74
2021/06/14 03:34:04;;;;;;;9.55;7.30;;;12.20;98.00;;;;;;4972600;28;20030;-73
2021/06/14 03:36:31;;;;;;;11.07;8.27;;;12.20;98.00;;;;;;4973206;28;20046;-72
2021/06/14 03:38:58;;;;;;;13.35;7.60;;;12.10;98.00;;;;;;4973161;28;20078;-72
2021/06/14 03:41:24;;;;;;;10.52;7.63;;;12.20;98.10;;;;;;4955286;28;20094;-79
2021/06/14 03:43:49;;;;;;;11.18;7.65;;;12.20;98.10;;;;;;4973193;28;20462;-73
2021/06/14 03:46:15;;;;;;;12.05;7.85;;;12.20;98.10;;;;;;4956213;28;20471;-73
2021/06/14 03:48:41;;;;;;;9.77;7.05;;;12.20;98.10;;;;;;4972937;28;20471;-74
2021/06/14 03:51:07;;;;;;;10.35;7.43;;;12.20;98.20;;;;;;4973017;28;20539;-75
2021/06/14 03:53:34;;;;;;;9.30;7.30;;;12.20;98.20;;;;;;4973303;28;20393;-73
2021/06/14 03:56:01;;;;;;;10.80;8.40;;;12.20;98.20;;;;;;4972198;28;20396;-75
2021/06/14 03:58:27;;;;;;;11.70;8.00;;;12.20;98.20;;;;;;4973294;28;20472;-75
2021/06/14 04:00:53;;;;;;;13.80;9.10;;;12.30;98.30;;;;;;4951023;29;20031;-74
2021/06/14 04:03:19;;;;;;;11.65;7.97;;;12.30;98.30;;;;;;4936094;29;20484;-73
2021/06/14 04:05:44;;;;;;;12.48;8.13;;;12.30;98.30;;;;;;4934640;29;20015;-72
2021/06/14 04:08:11;;;;;;;10.82;8.20;;;12.30;98.30;;;;;;4953417;29;20034;-74
2021/06/14 04:10:38;;;;;;;11.52;8.48;;;12.30;98.30;;;;;;4953313;29;20428;-72
2021/06/14 04:13:07;;;;;;;12.68;9.10;;;12.40;98.30;;;;;;4953674;29;20027;-77
2021/06/14 04:15:32;;;;;;;11.27;8.80;;;12.30;98.30;;;;;;4936127;29;20023;-73
2021/06/14 04:17:58;;;;;;;13.32;9.90;;;12.40;98.40;;;;;;4935231;29;20054;-82
2021/06/14 04:20:23;;;;;;;13.52;9.27;;;12.40;98.40;;;;;;4930055;29;20023;-72
2021/06/14 04:22:51;;;;;;;13.13;8.95;;;12.50;98.40;;;;;;4953827;28;20031;-74
2021/06/14 04:25:17;;;;;;;12.57;8.27;;;12.40;98.40;;;;;;4956207;29;20012;-73
2021/06/14 04:27:42;;;;;;;12.10;8.95;;;12.50;98.40;;;;;;4956880;29;20035;-76
2021/06/14 04:30:08;;;;;;;9.75;8.25;;;12.60;98.40;;;;;;4955567;29;20118;-72
2021/06/14 04:32:34;;;;;;;13.00;8.52;;;12.60;98.50;;;;;;4956277;29;20057;-73
2021/06/14 04:34:59;;;;;;;10.35;8.13;;;12.60;98.70;;;;;;4938898;29;20455;-69
2021/06/14 04:37:25;;;;;;;10.88;7.82;;;12.60;98.30;;;;;;4956058;29;20476;-69
2021/06/14 04:39:50;;;;;;;13.18;9.15;;;12.70;98.30;;;;;;4939657;29;20027;-69
2021/06/14 04:42:16;;;;;;;9.15;7.93;;;12.70;98.20;;;;;;4956991;29;20027;-76
2021/06/14 04:44:42;;;;;;;13.63;8.23;;;12.80;98.10;;;;;;4938629;29;20288;-69
2021/06/14 04:47:07;;;;;;;11.80;8.65;;;12.80;98.00;;;;;;4956283;29;20035;-70
2021/06/14 04:49:33;;;;;;;11.75;9.25;;;12.80;97.90;;;;;;4956558;29;20039;-70
2021/06/14 04:51:59;;;;;;;14.52;9.60;;;12.90;98.10;;;;;;4955280;29;20039;-72
2021/06/14 04:54:24;;;;;;;14.23;9.40;;;12.90;98.20;;;;;;4954331;29;20035;-74
2021/06/14 04:56:50;;;;;;;14.20;9.95;;;12.90;98.40;;;;;;4955659;29;20047;-71
2021/06/14 04:59:16;;;;;;;18.08;10.73;;;12.90;98.50;;;;;;4955576;29;20035;-73
2021/06/14 05:01:43;;;;;;;13.48;10.27;;;12.90;98.60;;;;;;4938838;29;20472;-72
2021/06/14 05:04:09;;;;;;;13.55;9.70;;;12.90;98.60;;;;;;4954032;29;20019;-75
2021/06/14 05:06:34;;;;;;;12.50;8.50;;;13.00;98.70;;;;;;4955522;29;20031;-72
2021/06/14 05:09:00;;;;;;;16.88;10.43;;;13.00;98.70;;;;;;4939255;29;20027;-77
2021/06/14 05:11:25;;;;;;;15.45;9.48;;;13.00;98.70;;;;;;4939185;29;20027;-78
2021/06/14 05:13:51;;;;;;;15.00;10.00;;;13.10;98.70;;;;;;4938204;29;20027;-74
2021/06/14 05:16:17;;;;;;;16.38;10.20;;;13.10;98.70;;;;;;4939001;29;20031;-71
2021/06/14 05:18:42;;;;;;;13.82;9.93;;;13.20;98.70;;;;;;4938824;29;20051;-74
2021/06/14 05:21:08;;;;;;;17.98;9.80;;;13.30;98.90;;;;;;4955135;29;20162;-79
2021/06/14 14:45:34;;;;;;;4.38;2.20;;;28.00;40.50;;;;;;4930712;23;20055;-85
2021/06/14 14:48:02;;;;;;;5.07;2.22;;;27.90;40.50;;;;;;4916003;29;20171;-82
2021/06/14 14:50:29;;;;;;;3.35;1.77;;;28.00;39.50;;;;;;4917467;29;20522;-74
2021/06/14 14:52:56;;;;;;;1.73;1.58;;;28.00;37.20;;;;;;4933186;29;20387;-85
2021/06/14 14:55:23;;;;;;;2.40;1.70;;;28.00;35.60;;;;;;4934566;29;20099;-72
2021/06/14 14:57:49;;;;;;;4.05;1.90;;;28.00;34.20;;;;;;4934744;29;20039;-80
2021/06/14 15:00:16;;;;;;;3.55;1.80;;;28.00;35.70;;;;;;4918435;29;20023;-73
2021/06/14 15:02:41;;;;;;;4.10;1.90;;;27.90;35.30;;;;;;4948260;29;20031;-75
2021/06/14 15:05:07;;;;;;;4.55;2.35;;;27.90;37.70;;;;;;4933489;29;20388;-73
2021/06/14 15:07:33;;;;;;;5.45;2.33;;;27.90;38.50;;;;;;4937694;29;20032;-76
2021/06/14 15:09:58;;;;;;;2.15;1.88;;;28.00;38.50;;;;;;4935166;29;20087;-72
2021/06/14 15:12:24;;;;;;;3.88;2.35;;;28.00;38.80;;;;;;4939468;29;20032;-80
2021/06/14 15:14:50;;;;;;;4.95;2.90;;;28.00;39.50;;;;;;4916843;29;20110;-73
2021/06/14 15:17:17;;;;;;;4.10;2.38;;;28.00;38.90;;;;;;4919451;29;20035;-73
2021/06/14 15:19:42;;;;;;;6.60;3.10;;;28.10;39.60;;;;;;4937226;29;20498;-74
2021/06/14 15:22:08;;;;;;;5.50;3.00;;;28.10;40.20;;;;;;4919339;29;20119;-78
2021/06/14 15:24:34;;;;;;;4.75;2.78;;;28.20;39.80;;;;;;4935449;29;20384;-73
2021/06/14 15:27:02;;;;;;;7.47;3.30;;;28.20;39.10;;;;;;4938170;29;20023;-73
2021/06/14 15:29:28;;;;;;;3.22;2.60;;;28.20;40.10;;;;;;4921777;29;20027;-72
2021/06/14 15:31:54;;;;;;;6.93;2.97;;;28.20;40.90;;;;;;4919253;29;20031;-74
2021/06/14 15:34:20;;;;;;;2.55;2.22;;;28.20;39.40;;;;;;4936871;29;20030;-75
2021/06/14 15:36:46;;;;;;;5.20;2.90;;;28.20;39.80;;;;;;4938507;29;20057;-75
2021/06/14 15:39:11;;;;;;;5.10;2.80;;;28.30;39.50;;;;;;4937025;29;20592;-75
2021/06/14 15:41:38;;;;;;;4.05;3.05;;;28.30;40.40;;;;;;4916815;29;20031;-74
2021/06/14 15:44:03;;;;;;;5.22;3.30;;;28.40;40.40;;;;;;4917341;29;20051;-78
2021/06/14 15:46:30;;;;;;;4.90;3.17;;;28.50;40.90;;;;;;4921557;29;20079;-73
2021/06/14 15:48:57;;;;;;;6.90;3.35;;;28.60;41.30;;;;;;4934782;29;20103;-74
2021/06/14 15:51:24;;;;;;;4.55;2.45;;;28.80;40.90;;;;;;4917034;29;20458;-80
2021/06/14 15:53:50;;;;;;;8.07;3.00;;;30.20;40.80;;;;;;4901855;29;20024;-73
2021/06/14 15:56:16;;;;;;;4.60;3.25;;;32.60;36.50;;;;;;4934081;29;20034;-81
2021/06/14 15:58:41;;;;;;;6.22;3.08;;;35.00;33.60;;;;;;4934141;29;20020;-75
2021/06/14 16:01:08;;;;;;;4.28;2.83;;;36.90;31.20;;;;;;4933574;29;20031;-73
2021/06/14 16:03:33;;;;;;;3.58;2.80;;;38.50;30.20;;;;;;4934264;29;20098;-80
2021/06/14 16:05:59;;;;;;;5.53;2.58;;;39.70;28.50;;;;;;4916766;29;20167;-74
2021/06/14 16:08:25;;;;;;;4.57;2.45;;;40.70;27.80;;;;;;4915467;29;20035;-87
2021/06/14 16:10:51;;;;;;;4.47;2.80;;;41.40;26.80;;;;;;4914937;29;20032;-78
2021/06/14 16:13:17;;;;;;;7.22;2.90;;;41.50;26.40;;;;;;4931151;29;20456;-75
2021/06/14 16:15:46;;;;;;;2.88;2.30;;;41.40;26.00;;;;;;4925143;29;20039;-78
2021/06/14 16:18:13;;;;;;;4.32;2.50;;;41.40;26.00;;;;;;4951635;28;20108;-83
2021/06/14 16:20:38;;;;;;;3.80;2.30;;;41.80;26.20;;;;;;4918937;29;20031;-80
2021/06/14 16:23:04;;;;;;;3.63;1.95;;;42.40;25.60;;;;;;4917413;29;20023;-75
2021/06/14 16:25:32;;;;;;;4.93;2.08;;;42.50;25.80;;;;;;4935171;29;20027;-72
2021/06/14 16:27:58;;;;;;;4.75;2.08;;;42.70;25.60;;;;;;4920414;28;20028;-78
2021/06/14 16:30:24;;;;;;;7.22;2.40;;;42.60;25.40;;;;;;4938155;29;20170;-77
2021/06/14 16:32:50;;;;;;;8.38;3.05;;;42.10;25.70;;;;;;4936882;29;20380;-80
2021/06/14 16:35:17;;;;;;;4.88;2.60;;;41.70;24.80;;;;;;4937245;29;20485;-75
2021/06/14 16:37:46;;;;;;;4.15;2.50;;;41.30;25.50;;;;;;4953294;29;20332;-75
2021/06/14 16:40:12;;;;;;;4.75;2.58;;;41.00;25.60;;;;;;4935020;29;20046;-73
2021/06/14 16:42:39;;;;;;;4.07;2.45;;;40.90;25.80;;;;;;4933118;29;20491;-72
2021/06/14 16:45:08;;;;;;;4.82;2.45;;;40.80;25.90;;;;;;4934557;29;20123;-73
2021/06/14 16:47:34;;;;;;;4.53;2.22;;;40.80;26.20;;;;;;4936546;29;20121;-72
2021/06/14 16:49:59;;;;;;;3.78;2.70;;;40.30;26.20;;;;;;4952858;28;20073;-73
2021/06/14 16:52:25;;;;;;;6.32;3.20;;;39.70;26.90;;;;;;4949685;28;20726;-72
2021/06/14 16:54:50;;;;;;;3.58;2.38;;;38.60;26.90;;;;;;4934142;28;20032;-75
2021/06/14 16:57:16;;;;;;;4.78;2.97;;;37.30;28.20;;;;;;4942181;29;20050;-74
2021/06/14 16:59:42;;;;;;;3.97;2.70;;;36.20;29.30;;;;;;4933033;29;20035;-73
2021/06/14 17:02:08;;;;;;;4.85;2.80;;;36.00;30.70;;;;;;4930541;29;20526;-74
2021/06/14 17:04:35;;;;;;;6.07;2.95;;;36.30;31.40;;;;;;4929826;29;20034;-74
2021/06/14 17:07:02;;;;;;;5.60;2.95;;;36.70;30.40;;;;;;4916777;29;20036;-74
2021/06/14 17:09:28;;;;;;;3.50;2.47;;;37.20;30.30;;;;;;4918076;29;20031;-74
2021/06/14 17:11:54;;;;;;;6.60;3.08;;;37.60;30.10;;;;;;4926719;29;20605;-74
2021/06/14 17:14:19;;;;;;;4.47;3.10;;;37.90;30.30;;;;;;4933498;29;20039;-73
2021/06/14 17:16:46;;;;;;;5.95;3.00;;;38.10;29.80;;;;;;4916178;29;20114;-86
2021/06/14 17:19:12;;;;;;;3.67;2.70;;;38.30;30.00;;;;;;4933959;29;20106;-79
2021/06/14 17:21:38;;;;;;;6.18;3.53;;;38.60;31.00;;;;;;4916025;29;20492;-74
2021/06/14 17:24:05;;;;;;;5.28;3.28;;;38.50;29.60;;;;;;4916797;29;20035;-73
2021/06/14 17:26:30;;;;;;;8.00;3.95;;;38.20;29.70;;;;;;4932889;29;20511;-73
2021/06/14 17:28:56;;;;;;;7.75;3.28;;;37.80;29.50;;;;;;4916211;29;20032;-73
2021/06/14 17:31:21;;;;;;;7.05;3.33;;;37.00;30.00;;;;;;4932915;29;20102;-73
2021/06/14 17:33:47;;;;;;;6.38;3.63;;;36.20;30.70;;;;;;4916311;29;20042;-73
2021/06/14 17:36:13;;;;;;;8.80;3.90;;;35.50;31.80;;;;;;4933548;29;20546;-72
2021/06/14 17:38:39;;;;;;;11.18;3.97;;;34.70;32.90;;;;;;4933310;29;20045;-73
2021/06/14 17:41:05;;;;;;;5.32;3.53;;;33.90;33.90;;;;;;4938773;29;20040;-73
2021/06/14 17:43:30;;;;;;;9.02;4.70;;;33.90;34.30;;;;;;4933582;29;20142;-73
2021/06/14 17:45:56;;;;;;;9.57;4.15;;;34.90;33.70;;;;;;4933279;29;20058;-79
2021/06/14 17:48:22;;;;;;;8.05;3.67;;;35.80;33.10;;;;;;4932203;29;20121;-72
2021/06/14 17:50:48;;;;;;;7.78;3.53;;;36.40;31.70;;;;;;4915454;29;20472;-75
2021/06/14 17:53:14;;;;;;;8.07;3.28;;;36.20;30.90;;;;;;4917346;29;20062;-74
2021/06/14 17:55:43;;;;;;;4.57;2.92;;;36.00;30.90;;;;;;4933521;29;20020;-74
2021/06/14 17:58:12;;;;;;;7.93;3.85;;;35.90;31.30;;;;;;4949986;29;20114;-72
2021/06/14 18:00:38;;;;;;;6.95;3.17;;;35.60;31.10;;;;;;4935257;29;20031;-72
2021/06/14 18:03:04;;;;;;;5.93;3.45;;;35.50;31.40;;;;;;4933896;29;20082;-72
2021/06/14 18:05:30;;;;;;;5.63;3.20;;;35.00;31.30;;;;;;4952258;28;20034;-76
2021/06/14 18:07:56;;;;;;;4.68;2.63;;;34.10;32.20;;;;;;4952156;29;20058;-73
2021/06/14 18:10:23;;;;;;;6.47;3.20;;;33.30;33.00;;;;;;4951761;29;20070;-72
2021/06/14 18:12:49;;;;;;;6.85;2.97;;;32.80;33.00;;;;;;4949799;28;20098;-76
2021/06/14 18:15:17;;;;;;;4.82;3.10;;;32.20;33.30;;;;;;4949417;28;20031;-72
2021/06/14 18:17:43;;;;;;;6.57;3.22;;;31.20;34.10;;;;;;4933491;29;20036;-72
2021/06/14 18:20:12;;;;;;;4.55;2.72;;;30.10;35.50;;;;;;4934634;29;20428;-73
2021/06/14 18:22:38;;;;;;;8.00;3.42;;;29.30;36.80;;;;;;4933703;29;20042;-70
2021/06/14 18:25:05;;;;;;;6.18;3.30;;;28.70;40.00;;;;;;4947356;29;20050;-72
2021/06/14 18:27:34;;;;;;;8.48;3.88;;;28.10;41.30;;;;;;4932519;29;20047;-71
2021/06/14 18:30:01;;;;;;;12.80;5.00;;;27.60;46.70;;;;;;4931720;29;20027;-70
2021/06/14 18:32:27;;;;;;;6.50;4.03;;;26.50;59.10;;;;;;4932297;29;20024;-71
2021/06/14 18:34:52;;;;;;;5.75;3.75;;;25.10;69.80;;;;;;4935941;28;20031;-69
2021/06/14 18:37:18;;;;;;;6.82;4.28;;;23.80;73.40;;;;;;4947038;29;20487;-68
2021/06/14 18:39:44;;;;;;;8.52;4.53;;;22.80;74.00;;;;;;4949852;28;20035;-66
2021/06/14 18:42:10;;;;;;;7.63;3.47;;;22.20;73.60;;;;;;4941771;28;20070;-68
2021/06/14 18:44:35;;;;;;;8.63;4.40;;;21.90;69.80;;;;;;4944743;29;20039;-71
2021/06/14 18:47:01;;;;;;;7.18;4.20;;;21.80;74.90;;;;;;4933249;29;20047;-76
2021/06/14 18:49:26;;;;;;;8.65;4.78;;;21.80;73.20;;;;;;4933133;29;20033;-72
2021/06/14 18:51:52;;;;;;;7.38;4.88;;;21.80;70.70;;;;;;4937552;28;20040;-69
2021/06/14 18:54:18;;;;;;;9.15;6.05;;;21.90;71.60;;;;;;4930970;29;20024;-70
2021/06/14 18:56:44;;;;;;;7.70;4.95;;;22.00;72.20;;;;;;4932242;29;20059;-70
2021/06/14 18:59:09;;;;;;;10.43;5.43;;;22.10;72.40;;;;;;4914148;29;20432;-71
2021/06/14 19:01:35;;;;;;;11.57;5.78;;;22.20;72.60;;;;;;4915933;29;20024;-70
2021/06/14 19:04:05;;;;;;;7.75;5.00;;;22.30;72.00;;;;;;4940344;29;20027;-68
2021/06/14 19:06:33;;;;;;;9.70;5.80;;;22.50;74.40;;;;;;4949801;28;20050;-71
2021/06/14 19:09:01;;;;;;;8.40;5.40;;;22.50;73.60;;;;;;4934776;29;20487;-71
2021/06/14 19:11:26;;;;;;;9.95;6.15;;;22.50;73.60;;;;;;4931406;29;20086;-71
2021/06/14 19:13:52;;;;;;;10.05;6.82;;;22.50;74.40;;;;;;4931022;29;20027;-70
2021/06/14 19:16:18;;;;;;;11.68;6.65;;;22.40;74.80;;;;;;4931004;29;20062;-70
2021/06/14 19:18:44;;;;;;;10.02;7.18;;;22.40;75.40;;;;;;4930666;29;20027;-71
2021/06/14 19:21:09;;;;;;;8.63;7.00;;;22.40;76.20;;;;;;4947093;29;20028;-70
2021/06/14 19:23:35;;;;;;;15.77;8.27;;;22.30;76.50;;;;;;4950421;29;20031;-71
2021/06/14 19:26:00;;;;;;;11.60;7.78;;;22.30;77.20;;;;;;4949309;28;20461;-72
2021/06/14 19:28:26;;;;;;;11.95;7.65;;;22.20;77.50;;;;;;4933804;29;20054;-70
2021/06/14 19:30:52;;;;;;;10.85;7.45;;;22.10;77.50;;;;;;4950439;29;20122;-71
2021/06/14 19:33:19;;;;;;;13.88;7.70;;;22.10;77.60;;;;;;4949482;28;20030;-78
2021/06/14 19:35:45;;;;;;;13.60;7.38;;;22.00;77.70;;;;;;4933508;29;20028;-72
2021/06/14 19:38:11;;;;;;;10.90;7.60;;;21.90;77.80;;;;;;4950325;29;20035;-74
2021/06/14 19:40:36;;;;;;;12.85;7.75;;;21.90;77.50;;;;;;4947782;29;20110;-70
2021/06/14 19:43:03;;;;;;;9.20;6.55;;;21.80;78.00;;;;;;4931103;29;20024;-72
2021/06/14 19:45:29;;;;;;;7.38;6.35;;;21.70;77.60;;;;;;4930947;29;20449;-71
2021/06/14 19:47:54;;;;;;;9.38;6.38;;;21.60;77.60;;;;;;4948239;29;20031;-71
2021/06/14 19:50:21;;;;;;;11.90;6.70;;;21.60;79.00;;;;;;4944760;29;20511;-76
2021/06/14 19:52:46;;;;;;;10.20;7.10;;;21.50;79.00;;;;;;4929942;29;20066;-71
2021/06/14 19:55:14;;;;;;;9.40;6.38;;;21.50;79.30;;;;;;4913470;29;20051;-72
2021/06/14 19:57:40;;;;;;;9.82;7.57;;;21.40;79.40;;;;;;4898356;29;20028;-74
2021/06/14 20:00:09;;;;;;;11.50;7.60;;;21.30;79.90;;;;;;4902377;29;20496;-73
2021/06/14 20:02:35;;;;;;;14.82;8.02;;;21.30;80.20;;;;;;4911867;29;20099;-71
2021/06/14 20:05:00;;;;;;;9.75;7.13;;;21.20;80.80;;;;;;4912900;29;20028;-72
2021/06/14 20:07:26;;;;;;;12.95;7.93;;;21.10;81.00;;;;;;4908095;29;20097;-75
2021/06/14 20:09:52;;;;;;;7.70;6.93;;;21.00;81.70;;;;;;4913669;29;20027;-73
2021/06/14 20:12:18;;;;;;;12.38;8.80;;;21.00;82.40;;;;;;4932096;29;20063;-72
2021/06/14 20:14:43;;;;;;;11.77;7.93;;;20.90;82.50;;;;;;4930856;29;20030;-71
2021/06/14 20:17:09;;;;;;;12.25;8.13;;;20.80;82.60;;;;;;4914873;29;20420;-72
2021/06/14 20:19:35;;;;;;;11.65;8.38;;;20.80;82.20;;;;;;4932138;29;20028;-81
2021/06/14 20:22:01;;;;;;;11.48;8.25;;;20.70;82.70;;;;;;4913708;29;20289;-75
2021/06/14 20:24:27;;;;;;;14.18;8.40;;;20.70;82.80;;;;;;4942662;29;20031;-74
2021/06/14 20:26:53;;;;;;;12.82;8.00;;;20.60;82.90;;;;;;4931945;29;20171;-86
2021/06/14 20:29:18;;;;;;;12.00;9.13;;;20.60;83.20;;;;;;4938461;29;20503;-78
2021/06/14 20:31:44;;;;;;;14.45;8.02;;;20.50;84.20;;;;;;4921022;29;20035;-70
2021/06/14 20:34:09;;;;;;;9.70;7.88;;;20.40;83.50;;;;;;4918654;29;20078;-76
2021/06/14 20:36:36;;;;;;;13.10;9.00;;;20.30;84.40;;;;;;4932487;29;20038;-84
2021/06/14 20:39:06;;;;;;;12.07;8.43;;;20.30;84.20;;;;;;4934234;29;20061;-87
2021/06/14 20:41:33;;;;;;;13.18;8.90;;;20.20;85.40;;;;;;4951468;28;20114;-91
2021/06/14 20:43:59;;;;;;;9.70;7.93;;;20.10;85.50;;;;;;4932985;29;20023;-85
2021/06/14 20:46:25;;;;;;;12.93;9.13;;;20.10;86.10;;;;;;4919618;29;20039;-86
2021/06/14 20:48:50;;;;;;;12.23;8.57;;;20.00;86.70;;;;;;4951009;29;20046;-75
2021/06/14 20:51:17;;;;;;;12.45;8.75;;;20.00;86.70;;;;;;4939962;28;20024;-81
2021/06/14 20:53:43;;;;;;;11.13;8.45;;;19.90;87.20;;;;;;4931650;29;20079;-81
2021/06/14 20:56:09;;;;;;;16.30;9.50;;;19.90;87.50;;;;;;4936563;29;20039;-72
2021/06/14 20:58:34;;;;;;;12.00;9.15;;;19.80;87.80;;;;;;4915733;29;20441;-72
2021/06/14 21:01:00;;;;;;;10.80;8.88;;;19.80;87.80;;;;;;4931038;29;20036;-72
2021/06/14 21:03:26;;;;;;;13.00;9.63;;;19.70;87.90;;;;;;4932196;29;20125;-85
2021/06/14 21:05:52;;;;;;;12.32;9.20;;;19.70;88.70;;;;;;4927380;29;20804;-73
2021/06/14 21:08:18;;;;;;;13.93;11.32;;;19.60;88.70;;;;;;4941703;29;20042;-82
2021/06/14 21:10:43;;;;;;;15.40;9.85;;;19.50;89.00;;;;;;4934465;29;20019;-73
2021/06/14 21:13:09;;;;;;;15.88;10.90;;;19.50;89.70;;;;;;4933867;29;20488;-72
2021/06/14 21:15:36;;;;;;;14.82;11.32;;;19.50;90.00;;;;;;4935077;29;20192;-73
2021/06/14 21:18:01;;;;;;;12.25;10.23;;;19.40;90.20;;;;;;4934802;29;20479;-72
2021/06/14 21:20:27;;;;;;;16.85;12.00;;;19.40;90.30;;;;;;4945670;29;20075;-72
2021/06/14 21:22:52;;;;;;;15.07;13.38;;;19.30;90.70;;;;;;4937010;29;20035;-75
2021/06/14 21:25:18;;;;;;;19.45;12.50;;;19.30;91.00;;;;;;4937206;29;20083;-74
2021/06/14 21:27:44;;;;;;;14.30;12.23;;;19.30;91.00;;;;;;4928313;28;20092;-71
2021/06/14 21:30:12;;;;;;;15.98;12.25;;;19.20;91.30;;;;;;4939512;29;20031;-80
2021/06/14 21:32:39;;;;;;;17.20;13.15;;;19.10;91.50;;;;;;4952073;28;20086;-77
2021/06/14 21:35:06;;;;;;;17.85;13.27;;;19.10;91.70;;;;;;4936542;29;20043;-72
2021/06/14 21:37:32;;;;;;;15.35;11.88;;;19.00;92.10;;;;;;4936100;29;20031;-72
2021/06/14 21:39:58;;;;;;;13.13;10.68;;;19.00;91.90;;;;;;4939096;29;20486;-73
2021/06/14 21:42:23;;;;;;;16.50;12.05;;;18.90;91.90;;;;;;4942900;29;20103;-72
2021/06/14 21:44:49;;;;;;;17.17;12.50;;;19.00;92.20;;;;;;4916306;29;20139;-77
2021/06/14 21:47:15;;;;;;;13.98;11.43;;;18.90;92.30;;;;;;4934093;29;20028;-71
2021/06/14 21:49:41;;;;;;;13.18;10.73;;;18.90;92.20;;;;;;4933864;29;20474;-71
2021/06/14 21:52:06;;;;;;;16.95;11.48;;;18.80;92.30;;;;;;4933398;29;20107;-74
2021/06/14 21:54:32;;;;;;;13.27;11.07;;;18.80;92.50;;;;;;4916086;29;20174;-71
2021/06/14 21:56:58;;;;;;;14.95;10.88;;;18.70;92.70;;;;;;4915847;29;20043;-72
2021/06/14 21:59:23;;;;;;;13.25;11.32;;;18.70;92.70;;;;;;4933812;29;20661;-72